sensor_id;sensor_type;location;lat;lon;timestamp;P1;durP1;ratioP1;P2;durP2;ratioP2
82242;SDS011;71844;51.528;4.442;2024-03-22T00:00:16;26.50;;;11.57;;
82242;SDS011;71844;51.528;4.442;2024-03-22T00:02:42;25.77;;;12.23;;
82242;SDS011;71844;51.528;4.442;2024-03-22T00:05:08;28.67;;;12.88;;
82242;SDS011;71844;51.528;4.442;2024-03-22T00:07:34;27.98;;;13.32;;
82242;SDS011;71844;51.528;4.442;2024-03-22T00:10:01;26.90;;;12.63;;
82242;SDS011;71844;51.528;4.442;2024-03-22T00:12:28;28.42;;;13.15;;
82242;SDS011;71844;51.528;4.442;2024-03-22T00:14:54;26.55;;;12.80;;
82242;SDS011;71844;51.528;4.442;2024-03-22T00:17:22;26.70;;;12.45;;
82242;SDS011;71844;51.528;4.442;2024-03-22T00:19:47;26.88;;;11.60;;
82242;SDS011;71844;51.528;4.442;2024-03-22T00:22:13;25.17;;;12.15;;
82242;SDS011;71844;51.528;4.442;2024-03-22T00:24:40;28.08;;;13.13;;
82242;SDS011;71844;51.528;4.442;2024-03-22T00:27:06;28.45;;;13.65;;
82242;SDS011;71844;51.528;4.442;2024-03-22T00:29:32;25.70;;;13.18;;
82242;SDS011;71844;51.528;4.442;2024-03-22T00:31:58;27.55;;;12.82;;
82242;SDS011;71844;51.528;4.442;2024-03-22T00:34:24;27.02;;;13.20;;
82242;SDS011;71844;51.528;4.442;2024-03-22T00:36:50;28.00;;;12.85;;
82242;SDS011;71844;51.528;4.442;2024-03-22T00:39:16;27.00;;;13.35;;
82242;SDS011;71844;51.528;4.442;2024-03-22T00:41:42;23.05;;;11.57;;
82242;SDS011;71844;51.528;4.442;2024-03-22T00:44:08;31.17;;;13.88;;
82242;SDS011;71844;51.528;4.442;2024-03-22T00:46:34;30.27;;;12.85;;
82242;SDS011;71844;51.528;4.442;2024-03-22T00:49:01;22.90;;;10.95;;
82242;SDS011;71844;51.528;4.442;2024-03-22T00:51:27;28.92;;;13.07;;
82242;SDS011;71844;51.528;4.442;2024-03-22T00:53:53;24.88;;;12.90;;
82242;SDS011;71844;51.528;4.442;2024-03-22T00:56:19;28.77;;;13.82;;
82242;SDS011;71844;51.528;4.442;2024-03-22T00:58:45;30.38;;;13.05;;
82242;SDS011;71844;51.528;4.442;2024-03-22T01:01:11;25.05;;;12.63;;
82242;SDS011;71844;51.528;4.442;2024-03-22T01:03:38;25.02;;;12.18;;
82242;SDS011;71844;51.528;4.442;2024-03-22T01:06:03;26.58;;;13.13;;
82242;SDS011;71844;51.528;4.442;2024-03-22T01:08:29;26.25;;;11.40;;
82242;SDS011;71844;51.528;4.442;2024-03-22T01:10:55;22.70;;;11.55;;
82242;SDS011;71844;51.528;4.442;2024-03-22T01:13:21;25.70;;;11.27;;
82242;SDS011;71844;51.528;4.442;2024-03-22T01:15:47;22.90;;;10.85;;
82242;SDS011;71844;51.528;4.442;2024-03-22T01:18:13;23.38;;;10.02;;
82242;SDS011;71844;51.528;4.442;2024-03-22T01:20:39;22.10;;;10.52;;
82242;SDS011;71844;51.528;4.442;2024-03-22T01:23:04;22.25;;;10.45;;
82242;SDS011;71844;51.528;4.442;2024-03-22T01:25:30;21.80;;;9.68;;
82242;SDS011;71844;51.528;4.442;2024-03-22T01:27:56;20.55;;;9.38;;
82242;SDS011;71844;51.528;4.442;2024-03-22T01:33:00;20.23;;;9.00;;
82242;SDS011;71844;51.528;4.442;2024-03-22T01:35:26;19.20;;;9.25;;
82242;SDS011;71844;51.528;4.442;2024-03-22T01:37:51;20.20;;;9.27;;
82242;SDS011;71844;51.528;4.442;2024-03-22T01:40:17;18.70;;;8.80;;
82242;SDS011;71844;51.528;4.442;2024-03-22T01:42:43;21.92;;;9.27;;
82242;SDS011;71844;51.528;4.442;2024-03-22T01:45:09;15.75;;;8.20;;
82242;SDS011;71844;51.528;4.442;2024-03-22T01:47:39;17.02;;;8.27;;
82242;SDS011;71844;51.528;4.442;2024-03-22T01:50:05;16.45;;;7.90;;
82242;SDS011;71844;51.528;4.442;2024-03-22T01:52:32;22.42;;;8.70;;
82242;SDS011;71844;51.528;4.442;2024-03-22T01:54:58;17.95;;;7.60;;
82242;SDS011;71844;51.528;4.442;2024-03-22T01:57:24;18.83;;;8.18;;
82242;SDS011;71844;51.528;4.442;2024-03-22T01:59:51;19.25;;;7.38;;
82242;SDS011;71844;51.528;4.442;2024-03-22T02:04:56;17.05;;;8.10;;
82242;SDS011;71844;51.528;4.442;2024-03-22T02:07:22;16.27;;;6.82;;
82242;SDS011;71844;51.528;4.442;2024-03-22T02:09:48;20.75;;;8.75;;
82242;SDS011;71844;51.528;4.442;2024-03-22T02:12:15;19.63;;;7.90;;
82242;SDS011;71844;51.528;4.442;2024-03-22T02:14:42;23.30;;;8.75;;
82242;SDS011;71844;51.528;4.442;2024-03-22T02:17:08;19.63;;;7.90;;
82242;SDS011;71844;51.528;4.442;2024-03-22T02:19:34;21.13;;;8.98;;
82242;SDS011;71844;51.528;4.442;2024-03-22T02:21:59;18.60;;;8.00;;
82242;SDS011;71844;51.528;4.442;2024-03-22T02:24:25;18.05;;;7.72;;
82242;SDS011;71844;51.528;4.442;2024-03-22T02:26:51;19.27;;;8.60;;
82242;SDS011;71844;51.528;4.442;2024-03-22T02:29:17;19.63;;;8.82;;
82242;SDS011;71844;51.528;4.442;2024-03-22T02:31:43;18.70;;;7.75;;
82242;SDS011;71844;51.528;4.442;2024-03-22T02:34:08;18.67;;;8.85;;
82242;SDS011;71844;51.528;4.442;2024-03-22T02:36:34;16.35;;;7.63;;
82242;SDS011;71844;51.528;4.442;2024-03-22T02:39:01;20.10;;;8.60;;
82242;SDS011;71844;51.528;4.442;2024-03-22T02:41:27;20.92;;;8.73;;
82242;SDS011;71844;51.528;4.442;2024-03-22T02:43:52;16.98;;;7.47;;
82242;SDS011;71844;51.528;4.442;2024-03-22T02:46:18;19.95;;;8.23;;
82242;SDS011;71844;51.528;4.442;2024-03-22T02:48:44;16.90;;;7.70;;
82242;SDS011;71844;51.528;4.442;2024-03-22T02:51:10;19.38;;;8.70;;
82242;SDS011;71844;51.528;4.442;2024-03-22T02:53:36;20.08;;;8.77;;
82242;SDS011;71844;51.528;4.442;2024-03-22T02:56:02;20.98;;;9.05;;
82242;SDS011;71844;51.528;4.442;2024-03-22T02:58:28;16.17;;;7.78;;
82242;SDS011;71844;51.528;4.442;2024-03-22T03:00:54;20.95;;;8.55;;
82242;SDS011;71844;51.528;4.442;2024-03-22T03:03:20;19.52;;;8.23;;
82242;SDS011;71844;51.528;4.442;2024-03-22T03:05:46;22.52;;;9.70;;
82242;SDS011;71844;51.528;4.442;2024-03-22T03:08:12;18.77;;;8.60;;
82242;SDS011;71844;51.528;4.442;2024-03-22T03:10:38;20.08;;;8.25;;
82242;SDS011;71844;51.528;4.442;2024-03-22T03:13:04;18.63;;;9.18;;
82242;SDS011;71844;51.528;4.442;2024-03-22T03:15:29;20.15;;;9.10;;
82242;SDS011;71844;51.528;4.442;2024-03-22T03:17:55;18.25;;;8.23;;
82242;SDS011;71844;51.528;4.442;2024-03-22T03:20:21;19.88;;;8.48;;
82242;SDS011;71844;51.528;4.442;2024-03-22T03:22:47;20.30;;;8.30;;
82242;SDS011;71844;51.528;4.442;2024-03-22T03:25:13;19.45;;;8.38;;
82242;SDS011;71844;51.528;4.442;2024-03-22T03:27:39;22.58;;;9.50;;
82242;SDS011;71844;51.528;4.442;2024-03-22T03:30:05;21.17;;;9.50;;
82242;SDS011;71844;51.528;4.442;2024-03-22T03:32:34;22.08;;;9.93;;
82242;SDS011;71844;51.528;4.442;2024-03-22T03:35:00;20.13;;;9.43;;
82242;SDS011;71844;51.528;4.442;2024-03-22T03:37:26;22.38;;;9.00;;
82242;SDS011;71844;51.528;4.442;2024-03-22T03:39:52;20.50;;;8.95;;
82242;SDS011;71844;51.528;4.442;2024-03-22T03:42:17;20.05;;;9.13;;
82242;SDS011;71844;51.528;4.442;2024-03-22T03:44:43;17.55;;;8.45;;
82242;SDS011;71844;51.528;4.442;2024-03-22T03:47:09;21.20;;;8.82;;
82242;SDS011;71844;51.528;4.442;2024-03-22T03:49:38;19.80;;;8.80;;
82242;SDS011;71844;51.528;4.442;2024-03-22T03:52:05;21.55;;;8.73;;
82242;SDS011;71844;51.528;4.442;2024-03-22T03:54:30;21.92;;;8.38;;
82242;SDS011;71844;51.528;4.442;2024-03-22T03:56:56;19.80;;;7.70;;
82242;SDS011;71844;51.528;4.442;2024-03-22T03:59:22;20.27;;;8.60;;
82242;SDS011;71844;51.528;4.442;2024-03-22T04:01:48;18.05;;;8.75;;
82242;SDS011;71844;51.528;4.442;2024-03-22T04:04:14;17.85;;;7.22;;
82242;SDS011;71844;51.528;4.442;2024-03-22T04:06:40;16.85;;;7.85;;
82242;SDS011;71844;51.528;4.442;2024-03-22T04:09:06;17.92;;;7.95;;
82242;SDS011;71844;51.528;4.442;2024-03-22T04:11:32;18.58;;;8.25;;
82242;SDS011;71844;51.528;4.442;2024-03-22T04:13:58;16.33;;;7.70;;
82242;SDS011;71844;51.528;4.442;2024-03-22T04:16:27;18.38;;;8.10;;
82242;SDS011;71844;51.528;4.442;2024-03-22T04:18:53;16.42;;;7.53;;
82242;SDS011;71844;51.528;4.442;2024-03-22T04:21:19;18.65;;;8.02;;
82242;SDS011;71844;51.528;4.442;2024-03-22T04:23:44;18.27;;;8.02;;
82242;SDS011;71844;51.528;4.442;2024-03-22T04:26:10;20.40;;;8.63;;
82242;SDS011;71844;51.528;4.442;2024-03-22T04:28:37;16.40;;;7.75;;
82242;SDS011;71844;51.528;4.442;2024-03-22T04:31:06;16.05;;;7.90;;
82242;SDS011;71844;51.528;4.442;2024-03-22T04:33:34;17.48;;;8.50;;
82242;SDS011;71844;51.528;4.442;2024-03-22T04:36:01;17.67;;;8.55;;
82242;SDS011;71844;51.528;4.442;2024-03-22T04:38:27;16.65;;;7.90;;
82242;SDS011;71844;51.528;4.442;2024-03-22T04:40:54;16.95;;;6.97;;
82242;SDS011;71844;51.528;4.442;2024-03-22T04:43:22;15.43;;;7.18;;
82242;SDS011;71844;51.528;4.442;2024-03-22T04:45:49;17.95;;;7.85;;
82242;SDS011;71844;51.528;4.442;2024-03-22T04:48:22;17.05;;;8.63;;
82242;SDS011;71844;51.528;4.442;2024-03-22T04:50:51;15.25;;;6.85;;
82242;SDS011;71844;51.528;4.442;2024-03-22T04:53:18;14.27;;;6.53;;
82242;SDS011;71844;51.528;4.442;2024-03-22T04:55:49;15.48;;;6.60;;
82242;SDS011;71844;51.528;4.442;2024-03-22T04:58:19;13.60;;;6.35;;
82242;SDS011;71844;51.528;4.442;2024-03-22T05:00:56;17.75;;;8.75;;
82242;SDS011;71844;51.528;4.442;2024-03-22T05:03:23;14.90;;;6.60;;
82242;SDS011;71844;51.528;4.442;2024-03-22T05:05:49;16.05;;;7.47;;
82242;SDS011;71844;51.528;4.442;2024-03-22T05:08:16;17.00;;;7.18;;
82242;SDS011;71844;51.528;4.442;2024-03-22T05:10:42;17.33;;;7.43;;
82242;SDS011;71844;51.528;4.442;2024-03-22T05:13:08;16.90;;;7.78;;
82242;SDS011;71844;51.528;4.442;2024-03-22T05:15:37;18.48;;;8.27;;
82242;SDS011;71844;51.528;4.442;2024-03-22T05:18:03;14.93;;;6.82;;
82242;SDS011;71844;51.528;4.442;2024-03-22T05:20:29;17.27;;;8.73;;
82242;SDS011;71844;51.528;4.442;2024-03-22T05:22:55;17.40;;;7.25;;
82242;SDS011;71844;51.528;4.442;2024-03-22T05:25:21;17.20;;;7.65;;
82242;SDS011;71844;51.528;4.442;2024-03-22T05:27:47;17.55;;;7.55;;
82242;SDS011;71844;51.528;4.442;2024-03-22T05:30:13;14.88;;;7.43;;
82242;SDS011;71844;51.528;4.442;2024-03-22T05:32:42;19.50;;;8.02;;
82242;SDS011;71844;51.528;4.442;2024-03-22T05:35:08;17.80;;;8.40;;
82242;SDS011;71844;51.528;4.442;2024-03-22T05:37:34;18.77;;;8.77;;
82242;SDS011;71844;51.528;4.442;2024-03-22T05:40:01;15.93;;;6.90;;
82242;SDS011;71844;51.528;4.442;2024-03-22T05:42:29;16.92;;;7.78;;
82242;SDS011;71844;51.528;4.442;2024-03-22T05:44:58;15.07;;;7.00;;
82242;SDS011;71844;51.528;4.442;2024-03-22T05:47:24;19.95;;;8.45;;
82242;SDS011;71844;51.528;4.442;2024-03-22T05:49:50;18.70;;;8.75;;
82242;SDS011;71844;51.528;4.442;2024-03-22T05:52:16;20.60;;;8.10;;
82242;SDS011;71844;51.528;4.442;2024-03-22T05:54:42;20.75;;;8.25;;
82242;SDS011;71844;51.528;4.442;2024-03-22T05:57:08;18.25;;;7.88;;
82242;SDS011;71844;51.528;4.442;2024-03-22T05:59:34;18.50;;;8.45;;
82242;SDS011;71844;51.528;4.442;2024-03-22T06:02:01;18.98;;;8.07;;
82242;SDS011;71844;51.528;4.442;2024-03-22T06:04:26;17.38;;;7.65;;
82242;SDS011;71844;51.528;4.442;2024-03-22T10:05:01;10.45;;;4.80;;
82242;SDS011;71844;51.528;4.442;2024-03-22T10:07:29;12.55;;;5.30;;
82242;SDS011;71844;51.528;4.442;2024-03-22T10:09:59;9.70;;;4.55;;
82242;SDS011;71844;51.528;4.442;2024-03-22T10:12:25;10.27;;;5.05;;
82242;SDS011;71844;51.528;4.442;2024-03-22T10:14:54;13.20;;;5.07;;
82242;SDS011;71844;51.528;4.442;2024-03-22T10:19:50;11.23;;;4.72;;
82242;SDS011;71844;51.528;4.442;2024-03-22T10:24:43;12.35;;;4.28;;
82242;SDS011;71844;51.528;4.442;2024-03-22T10:27:10;14.50;;;5.18;;
82242;SDS011;71844;51.528;4.442;2024-03-22T10:29:36;11.27;;;4.97;;
82242;SDS011;71844;51.528;4.442;2024-03-22T10:32:02;10.07;;;4.93;;
82242;SDS011;71844;51.528;4.442;2024-03-22T10:34:28;9.75;;;4.50;;
82242;SDS011;71844;51.528;4.442;2024-03-22T10:36:59;12.30;;;5.53;;
82242;SDS011;71844;51.528;4.442;2024-03-22T10:39:26;10.32;;;4.50;;
82242;SDS011;71844;51.528;4.442;2024-03-22T10:41:54;11.38;;;4.88;;
82242;SDS011;71844;51.528;4.442;2024-03-22T10:44:20;12.43;;;5.93;;
82242;SDS011;71844;51.528;4.442;2024-03-22T10:46:47;10.40;;;5.53;;
82242;SDS011;71844;51.528;4.442;2024-03-22T10:49:17;13.27;;;6.20;;
82242;SDS011;71844;51.528;4.442;2024-03-22T10:51:49;12.77;;;6.20;;
82242;SDS011;71844;51.528;4.442;2024-03-22T10:54:19;13.45;;;6.35;;
82242;SDS011;71844;51.528;4.442;2024-03-22T10:56:48;9.68;;;5.22;;
82242;SDS011;71844;51.528;4.442;2024-03-22T10:59:24;10.30;;;5.07;;
82242;SDS011;71844;51.528;4.442;2024-03-22T11:01:50;10.05;;;5.13;;
82242;SDS011;71844;51.528;4.442;2024-03-22T11:04:22;11.00;;;5.45;;
82242;SDS011;71844;51.528;4.442;2024-03-22T11:06:48;9.48;;;5.03;;
82242;SDS011;71844;51.528;4.442;2024-03-22T11:09:21;12.65;;;5.78;;
82242;SDS011;71844;51.528;4.442;2024-03-22T11:11:48;9.93;;;5.20;;
82242;SDS011;71844;51.528;4.442;2024-03-22T11:14:16;13.77;;;6.28;;
82242;SDS011;71844;51.528;4.442;2024-03-22T11:16:45;12.27;;;5.00;;
82242;SDS011;71844;51.528;4.442;2024-03-22T11:19:14;11.25;;;4.70;;
82242;SDS011;71844;51.528;4.442;2024-03-22T11:21:40;10.05;;;5.15;;
82242;SDS011;71844;51.528;4.442;2024-03-22T11:24:06;9.32;;;4.82;;
82242;SDS011;71844;51.528;4.442;2024-03-22T11:26:36;11.60;;;5.25;;
82242;SDS011;71844;51.528;4.442;2024-03-22T11:29:03;12.02;;;6.15;;
82242;SDS011;71844;51.528;4.442;2024-03-22T11:31:29;9.93;;;5.57;;
82242;SDS011;71844;51.528;4.442;2024-03-22T11:33:55;10.63;;;5.30;;
82242;SDS011;71844;51.528;4.442;2024-03-22T11:36:24;9.70;;;5.28;;
82242;SDS011;71844;51.528;4.442;2024-03-22T11:38:50;12.32;;;5.60;;
82242;SDS011;71844;51.528;4.442;2024-03-22T11:41:23;10.30;;;5.78;;
82242;SDS011;71844;51.528;4.442;2024-03-22T11:43:52;10.25;;;5.72;;
82242;SDS011;71844;51.528;4.442;2024-03-22T11:46:19;9.57;;;6.07;;
82242;SDS011;71844;51.528;4.442;2024-03-22T11:48:56;12.07;;;6.28;;
82242;SDS011;71844;51.528;4.442;2024-03-22T11:51:23;11.32;;;5.80;;
82242;SDS011;71844;51.528;4.442;2024-03-22T11:53:53;12.25;;;5.95;;
82242;SDS011;71844;51.528;4.442;2024-03-22T11:56:21;11.93;;;5.90;;
82242;SDS011;71844;51.528;4.442;2024-03-22T11:58:57;10.13;;;5.60;;
82242;SDS011;71844;51.528;4.442;2024-03-22T12:01:27;12.52;;;6.32;;
82242;SDS011;71844;51.528;4.442;2024-03-22T12:03:56;9.65;;;5.53;;
82242;SDS011;71844;51.528;4.442;2024-03-22T12:06:22;9.45;;;5.35;;
82242;SDS011;71844;51.528;4.442;2024-03-22T12:08:48;11.40;;;5.25;;
82242;SDS011;71844;51.528;4.442;2024-03-22T12:11:14;11.05;;;5.22;;
82242;SDS011;71844;51.528;4.442;2024-03-22T12:13:40;11.68;;;5.15;;
82242;SDS011;71844;51.528;4.442;2024-03-22T12:16:06;10.02;;;5.03;;
82242;SDS011;71844;51.528;4.442;2024-03-22T12:18:36;9.07;;;4.43;;
82242;SDS011;71844;51.528;4.442;2024-03-22T12:21:02;9.70;;;4.50;;
82242;SDS011;71844;51.528;4.442;2024-03-22T12:23:28;6.70;;;3.85;;
82242;SDS011;71844;51.528;4.442;2024-03-22T12:25:54;8.25;;;3.75;;
82242;SDS011;71844;51.528;4.442;2024-03-22T12:28:21;7.80;;;3.88;;
82242;SDS011;71844;51.528;4.442;2024-03-22T12:30:47;7.60;;;4.03;;
82242;SDS011;71844;51.528;4.442;2024-03-22T12:33:16;7.38;;;4.18;;
82242;SDS011;71844;51.528;4.442;2024-03-22T12:35:42;7.65;;;4.10;;
82242;SDS011;71844;51.528;4.442;2024-03-22T12:38:09;8.00;;;4.38;;
82242;SDS011;71844;51.528;4.442;2024-03-22T12:40:37;7.85;;;3.92;;
82242;SDS011;71844;51.528;4.442;2024-03-22T12:43:04;7.00;;;3.65;;
82242;SDS011;71844;51.528;4.442;2024-03-22T12:45:30;6.55;;;3.88;;
82242;SDS011;71844;51.528;4.442;2024-03-22T12:47:58;7.78;;;4.43;;
82242;SDS011;71844;51.528;4.442;2024-03-22T12:50:27;6.95;;;3.58;;
82242;SDS011;71844;51.528;4.442;2024-03-22T12:52:53;5.43;;;3.22;;
82242;SDS011;71844;51.528;4.442;2024-03-22T12:55:19;7.43;;;3.30;;
82242;SDS011;71844;51.528;4.442;2024-03-22T12:57:44;4.35;;;2.83;;
82242;SDS011;71844;51.528;4.442;2024-03-22T13:00:13;5.57;;;2.80;;
82242;SDS011;71844;51.528;4.442;2024-03-22T13:02:46;7.45;;;2.88;;
82242;SDS011;71844;51.528;4.442;2024-03-22T13:05:13;4.78;;;2.38;;
82242;SDS011;71844;51.528;4.442;2024-03-22T13:07:40;3.67;;;2.05;;
82242;SDS011;71844;51.528;4.442;2024-03-22T13:10:07;3.08;;;1.80;;
82242;SDS011;71844;51.528;4.442;2024-03-22T13:12:34;4.65;;;1.83;;
82242;SDS011;71844;51.528;4.442;2024-03-22T13:15:00;4.63;;;2.10;;
82242;SDS011;71844;51.528;4.442;2024-03-22T13:17:26;3.60;;;1.90;;
82242;SDS011;71844;51.528;4.442;2024-03-22T13:19:52;3.72;;;2.05;;
82242;SDS011;71844;51.528;4.442;2024-03-22T13:22:18;3.63;;;2.03;;
82242;SDS011;71844;51.528;4.442;2024-03-22T13:24:45;3.28;;;1.73;;
82242;SDS011;71844;51.528;4.442;2024-03-22T13:27:12;4.25;;;1.85;;
82242;SDS011;71844;51.528;4.442;2024-03-22T13:29:41;3.75;;;2.20;;
82242;SDS011;71844;51.528;4.442;2024-03-22T13:32:07;3.95;;;1.88;;
82242;SDS011;71844;51.528;4.442;2024-03-22T13:34:36;4.60;;;1.75;;
82242;SDS011;71844;51.528;4.442;2024-03-22T13:37:04;4.15;;;1.83;;
82242;SDS011;71844;51.528;4.442;2024-03-22T13:39:29;3.75;;;2.15;;
82242;SDS011;71844;51.528;4.442;2024-03-22T13:41:56;3.80;;;2.13;;
82242;SDS011;71844;51.528;4.442;2024-03-22T13:44:22;3.65;;;2.05;;
82242;SDS011;71844;51.528;4.442;2024-03-22T13:46:51;2.97;;;1.67;;
82242;SDS011;71844;51.528;4.442;2024-03-22T13:49:18;3.55;;;1.90;;
82242;SDS011;71844;51.528;4.442;2024-03-22T13:51:46;3.22;;;1.85;;
82242;SDS011;71844;51.528;4.442;2024-03-22T13:54:13;3.15;;;1.67;;
82242;SDS011;71844;51.528;4.442;2024-03-22T13:56:39;2.95;;;1.55;;
82242;SDS011;71844;51.528;4.442;2024-03-22T13:59:06;3.45;;;1.85;;
82242;SDS011;71844;51.528;4.442;2024-03-22T14:01:34;4.13;;;1.50;;
82242;SDS011;71844;51.528;4.442;2024-03-22T14:04:00;4.32;;;1.83;;
82242;SDS011;71844;51.528;4.442;2024-03-22T14:06:29;3.05;;;1.83;;
82242;SDS011;71844;51.528;4.442;2024-03-22T14:08:56;3.20;;;1.73;;
82242;SDS011;71844;51.528;4.442;2024-03-22T14:11:29;2.90;;;1.67;;
82242;SDS011;71844;51.528;4.442;2024-03-22T14:13:59;3.42;;;1.63;;
82242;SDS011;71844;51.528;4.442;2024-03-22T14:16:25;3.70;;;2.15;;
82242;SDS011;71844;51.528;4.442;2024-03-22T14:18:51;4.65;;;2.28;;
82242;SDS011;71844;51.528;4.442;2024-03-22T14:21:17;4.57;;;2.53;;
82242;SDS011;71844;51.528;4.442;2024-03-22T14:23:48;5.78;;;2.80;;
82242;SDS011;71844;51.528;4.442;2024-03-22T14:26:15;5.90;;;3.60;;
82242;SDS011;71844;51.528;4.442;2024-03-22T14:28:41;3.92;;;2.08;;
82242;SDS011;71844;51.528;4.442;2024-03-22T14:31:08;7.13;;;3.20;;
82242;SDS011;71844;51.528;4.442;2024-03-22T14:33:38;5.53;;;2.92;;
82242;SDS011;71844;51.528;4.442;2024-03-22T14:36:05;5.32;;;2.85;;
82242;SDS011;71844;51.528;4.442;2024-03-22T14:38:32;5.70;;;3.22;;
82242;SDS011;71844;51.528;4.442;2024-03-22T14:40:58;6.35;;;3.05;;
82242;SDS011;71844;51.528;4.442;2024-03-22T14:43:24;9.50;;;3.58;;
82242;SDS011;71844;51.528;4.442;2024-03-22T14:45:51;6.43;;;3.05;;
82242;SDS011;71844;51.528;4.442;2024-03-22T14:48:20;9.20;;;3.45;;
82242;SDS011;71844;51.528;4.442;2024-03-22T14:50:47;10.82;;;3.90;;
82242;SDS011;71844;51.528;4.442;2024-03-22T14:53:14;9.73;;;4.00;;
82242;SDS011;71844;51.528;4.442;2024-03-22T14:55:53;10.60;;;4.38;;
82242;SDS011;71844;51.528;4.442;2024-03-22T14:58:29;10.65;;;3.90;;
82242;SDS011;71844;51.528;4.442;2024-03-22T15:00:56;11.65;;;4.25;;
82242;SDS011;71844;51.528;4.442;2024-03-22T15:03:23;7.78;;;2.80;;
82242;SDS011;71844;51.528;4.442;2024-03-22T15:05:50;6.95;;;2.70;;
82242;SDS011;71844;51.528;4.442;2024-03-22T15:08:17;12.57;;;3.63;;
82242;SDS011;71844;51.528;4.442;2024-03-22T15:10:43;10.60;;;3.53;;
82242;SDS011;71844;51.528;4.442;2024-03-22T15:13:12;6.55;;;2.95;;
82242;SDS011;71844;51.528;4.442;2024-03-22T15:15:40;10.32;;;3.60;;
82242;SDS011;71844;51.528;4.442;2024-03-22T15:18:07;8.63;;;3.83;;
82242;SDS011;71844;51.528;4.442;2024-03-22T15:20:35;10.40;;;3.08;;
82242;SDS011;71844;51.528;4.442;2024-03-22T15:23:02;9.90;;;3.53;;
82242;SDS011;71844;51.528;4.442;2024-03-22T15:25:29;13.48;;;4.43;;
82242;SDS011;71844;51.528;4.442;2024-03-22T15:27:55;9.13;;;3.80;;
82242;SDS011;71844;51.528;4.442;2024-03-22T15:30:21;7.45;;;2.95;;
82242;SDS011;71844;51.528;4.442;2024-03-22T15:32:47;11.35;;;4.63;;
82242;SDS011;71844;51.528;4.442;2024-03-22T15:35:13;9.25;;;3.42;;
82242;SDS011;71844;51.528;4.442;2024-03-22T15:37:39;7.60;;;3.38;;
82242;SDS011;71844;51.528;4.442;2024-03-22T15:40:07;9.93;;;3.95;;
82242;SDS011;71844;51.528;4.442;2024-03-22T15:42:36;14.18;;;4.57;;
82242;SDS011;71844;51.528;4.442;2024-03-22T15:45:03;9.75;;;3.55;;
82242;SDS011;71844;51.528;4.442;2024-03-22T15:47:34;10.13;;;3.58;;
82242;SDS011;71844;51.528;4.442;2024-03-22T15:50:00;7.50;;;3.33;;
82242;SDS011;71844;51.528;4.442;2024-03-22T15:52:26;11.98;;;4.22;;
82242;SDS011;71844;51.528;4.442;2024-03-22T15:54:54;11.95;;;4.55;;
82242;SDS011;71844;51.528;4.442;2024-03-22T15:57:20;8.20;;;4.15;;
82242;SDS011;71844;51.528;4.442;2024-03-22T15:59:46;10.27;;;3.72;;
82242;SDS011;71844;51.528;4.442;2024-03-22T16:02:12;7.97;;;3.80;;
82242;SDS011;71844;51.528;4.442;2024-03-22T16:04:38;9.80;;;4.13;;
82242;SDS011;71844;51.528;4.442;2024-03-22T16:07:04;11.43;;;4.30;;
82242;SDS011;71844;51.528;4.442;2024-03-22T16:09:31;7.40;;;3.80;;
82242;SDS011;71844;51.528;4.442;2024-03-22T16:11:57;10.80;;;4.20;;
82242;SDS011;71844;51.528;4.442;2024-03-22T16:14:23;10.07;;;4.20;;
82242;SDS011;71844;51.528;4.442;2024-03-22T16:16:49;11.77;;;4.30;;
82242;SDS011;71844;51.528;4.442;2024-03-22T16:19:16;11.05;;;4.13;;
82242;SDS011;71844;51.528;4.442;2024-03-22T16:21:42;8.80;;;4.13;;
82242;SDS011;71844;51.528;4.442;2024-03-22T16:24:08;11.25;;;3.67;;
82242;SDS011;71844;51.528;4.442;2024-03-22T16:26:35;9.32;;;3.90;;
82242;SDS011;71844;51.528;4.442;2024-03-22T16:29:01;10.77;;;4.30;;
82242;SDS011;71844;51.528;4.442;2024-03-22T16:31:29;9.18;;;4.07;;
82242;SDS011;71844;51.528;4.442;2024-03-22T16:33:55;11.85;;;3.83;;
82242;SDS011;71844;51.528;4.442;2024-03-22T16:36:21;9.13;;;3.95;;
82242;SDS011;71844;51.528;4.442;2024-03-22T16:38:48;16.73;;;4.57;;
82242;SDS011;71844;51.528;4.442;2024-03-22T16:41:16;13.27;;;3.88;;
82242;SDS011;71844;51.528;4.442;2024-03-22T16:43:42;12.50;;;4.10;;
82242;SDS011;71844;51.528;4.442;2024-03-22T16:46:07;11.95;;;3.97;;
82242;SDS011;71844;51.528;4.442;2024-03-22T16:48:33;12.77;;;4.68;;
82242;SDS011;71844;51.528;4.442;2024-03-22T16:51:00;12.63;;;3.88;;
82242;SDS011;71844;51.528;4.442;2024-03-22T16:53:25;11.82;;;3.50;;
82242;SDS011;71844;51.528;4.442;2024-03-22T16:55:51;11.00;;;3.53;;
82242;SDS011;71844;51.528;4.442;2024-03-22T16:58:18;9.80;;;3.67;;
82242;SDS011;71844;51.528;4.442;2024-03-22T17:00:44;11.48;;;4.00;;
82242;SDS011;71844;51.528;4.442;2024-03-22T17:03:11;11.25;;;4.68;;
82242;SDS011;71844;51.528;4.442;2024-03-22T17:05:37;9.60;;;3.90;;
82242;SDS011;71844;51.528;4.442;2024-03-22T17:08:04;9.93;;;4.20;;
82242;SDS011;71844;51.528;4.442;2024-03-22T17:10:31;9.65;;;3.70;;
82242;SDS011;71844;51.528;4.442;2024-03-22T17:12:56;12.50;;;4.43;;
82242;SDS011;71844;51.528;4.442;2024-03-22T17:15:22;12.20;;;4.18;;
82242;SDS011;71844;51.528;4.442;2024-03-22T17:17:50;10.75;;;3.67;;
82242;SDS011;71844;51.528;4.442;2024-03-22T17:20:18;10.50;;;3.78;;
82242;SDS011;71844;51.528;4.442;2024-03-22T17:22:44;10.07;;;4.30;;
82242;SDS011;71844;51.528;4.442;2024-03-22T17:25:13;8.55;;;4.25;;
82242;SDS011;71844;51.528;4.442;2024-03-22T17:27:39;14.93;;;3.95;;
82242;SDS011;71844;51.528;4.442;2024-03-22T17:30:06;8.45;;;3.30;;
82242;SDS011;71844;51.528;4.442;2024-03-22T17:32:32;10.50;;;4.00;;
82242;SDS011;71844;51.528;4.442;2024-03-22T17:35:01;9.10;;;3.35;;
82242;SDS011;71844;51.528;4.442;2024-03-22T17:37:27;12.73;;;3.50;;
82242;SDS011;71844;51.528;4.442;2024-03-22T17:39:53;9.80;;;3.22;;
82242;SDS011;71844;51.528;4.442;2024-03-22T17:42:19;9.73;;;3.45;;
82242;SDS011;71844;51.528;4.442;2024-03-22T17:44:46;8.07;;;3.20;;
82242;SDS011;71844;51.528;4.442;2024-03-22T17:47:12;10.02;;;3.45;;
82242;SDS011;71844;51.528;4.442;2024-03-22T17:49:37;9.50;;;3.15;;
82242;SDS011;71844;51.528;4.442;2024-03-22T17:52:03;8.63;;;3.15;;
82242;SDS011;71844;51.528;4.442;2024-03-22T17:54:29;11.48;;;3.80;;
82242;SDS011;71844;51.528;4.442;2024-03-22T17:56:55;10.93;;;4.00;;
82242;SDS011;71844;51.528;4.442;2024-03-22T17:59:21;9.82;;;3.53;;
82242;SDS011;71844;51.528;4.442;2024-03-22T18:01:47;10.10;;;2.95;;
82242;SDS011;71844;51.528;4.442;2024-03-22T18:04:16;14.23;;;4.50;;
82242;SDS011;71844;51.528;4.442;2024-03-22T18:06:42;10.98;;;3.20;;
82242;SDS011;71844;51.528;4.442;2024-03-22T18:09:08;10.00;;;2.97;;
82242;SDS011;71844;51.528;4.442;2024-03-22T18:11:39;10.75;;;3.58;;
82242;SDS011;71844;51.528;4.442;2024-03-22T18:14:05;11.70;;;3.67;;
82242;SDS011;71844;51.528;4.442;2024-03-22T18:16:31;10.63;;;3.38;;
82242;SDS011;71844;51.528;4.442;2024-03-22T18:19:00;13.60;;;3.47;;
82242;SDS011;71844;51.528;4.442;2024-03-22T18:21:26;12.88;;;3.33;;
82242;SDS011;71844;51.528;4.442;2024-03-22T18:23:52;15.48;;;3.42;;
82242;SDS011;71844;51.528;4.442;2024-03-22T18:26:18;12.45;;;3.22;;
82242;SDS011;71844;51.528;4.442;2024-03-22T18:28:48;13.32;;;4.50;;
82242;SDS011;71844;51.528;4.442;2024-03-22T18:31:14;12.25;;;3.63;;
82242;SDS011;71844;51.528;4.442;2024-03-22T18:33:40;9.43;;;3.78;;
82242;SDS011;71844;51.528;4.442;2024-03-22T18:36:06;9.98;;;3.20;;
82242;SDS011;71844;51.528;4.442;2024-03-22T18:38:32;9.32;;;3.33;;
82242;SDS011;71844;51.528;4.442;2024-03-22T18:40:59;12.43;;;3.78;;
82242;SDS011;71844;51.528;4.442;2024-03-22T18:43:25;13.50;;;3.63;;